sensor_id;sensor_type;location;lat;lon;timestamp;pressure;altitude;pressure_sealevel;temperature;humidity
77662;BME280;67292;52.136;5.424;2023-04-03T00:00:32;103297.66;;;4.07;83.99
77662;BME280;67292;52.136;5.424;2023-04-03T00:02:59;103295.84;;;4.06;85.19
77662;BME280;67292;52.136;5.424;2023-04-03T00:05:25;103295.81;;;4.04;84.22
77662;BME280;67292;52.136;5.424;2023-04-03T00:07:52;103298.34;;;4.01;84.78
77662;BME280;67292;52.136;5.424;2023-04-03T00:10:19;103298.25;;;3.98;84.92
77662;BME280;67292;52.136;5.424;2023-04-03T00:12:45;103307.00;;;3.97;85.40
77662;BME280;67292;52.136;5.424;2023-04-03T00:15:12;103303.47;;;3.96;84.52
77662;BME280;67292;52.136;5.424;2023-04-03T00:17:39;103306.84;;;3.92;84.71
77662;BME280;67292;52.136;5.424;2023-04-03T00:20:06;103305.88;;;3.90;85.38
77662;BME280;67292;52.136;5.424;2023-04-03T00:22:33;103304.91;;;3.87;85.68
77662;BME280;67292;52.136;5.424;2023-04-03T00:25:00;103303.16;;;3.87;84.90
77662;BME280;67292;52.136;5.424;2023-04-03T00:27:26;103303.06;;;3.84;85.36
77662;BME280;67292;52.136;5.424;2023-04-03T00:29:53;103303.06;;;3.84;85.65
77662;BME280;67292;52.136;5.424;2023-04-03T00:32:19;103300.31;;;3.81;85.33
77662;BME280;67292;52.136;5.424;2023-04-03T00:34:46;103302.00;;;3.79;85.27
77662;BME280;67292;52.136;5.424;2023-04-03T00:37:12;103305.44;;;3.77;84.67
77662;BME280;67292;52.136;5.424;2023-04-03T00:39:39;103311.50;;;3.74;85.96
77662;BME280;67292;52.136;5.424;2023-04-03T00:42:06;103307.00;;;3.72;85.26
77662;BME280;67292;52.136;5.424;2023-04-03T00:47:00;103316.59;;;3.70;85.64
77662;BME280;67292;52.136;5.424;2023-04-03T00:49:28;103318.31;;;3.67;85.16
77662;BME280;67292;52.136;5.424;2023-04-03T00:51:56;103322.59;;;3.65;86.05
77662;BME280;67292;52.136;5.424;2023-04-03T00:54:25;103316.44;;;3.65;86.06
77662;BME280;67292;52.136;5.424;2023-04-03T00:56:55;103324.28;;;3.63;86.26
77662;BME280;67292;52.136;5.424;2023-04-03T00:59:29;103318.91;;;3.60;86.30
77662;BME280;67292;52.136;5.424;2023-04-03T01:01:57;103329.38;;;3.59;85.65
77662;BME280;67292;52.136;5.424;2023-04-03T01:04:36;103324.06;;;3.57;85.73
77662;BME280;67292;52.136;5.424;2023-04-03T01:07:08;103320.56;;;3.57;85.57
77662;BME280;67292;52.136;5.424;2023-04-03T01:09:38;103325.81;;;3.57;85.42
77662;BME280;67292;52.136;5.424;2023-04-03T01:12:15;103324.88;;;3.55;85.37
77662;BME280;67292;52.136;5.424;2023-04-03T01:14:44;103325.72;;;3.54;85.48
77662;BME280;67292;52.136;5.424;2023-04-03T01:17:36;103327.38;;;3.52;86.13
77662;BME280;67292;52.136;5.424;2023-04-03T01:25:18;103330.66;;;3.45;86.47
77662;BME280;67292;52.136;5.424;2023-04-03T01:27:44;103331.50;;;3.44;86.35
77662;BME280;67292;52.136;5.424;2023-04-03T01:30:14;103327.00;;;3.41;86.39
77662;BME280;67292;52.136;5.424;2023-04-03T01:32:43;103325.16;;;3.39;85.65
77662;BME280;67292;52.136;5.424;2023-04-03T01:35:10;103330.41;;;3.39;86.63
77662;BME280;67292;52.136;5.424;2023-04-03T01:37:37;103325.09;;;3.37;86.10
77662;BME280;67292;52.136;5.424;2023-04-03T01:40:04;103327.66;;;3.36;86.43
77662;BME280;67292;52.136;5.424;2023-04-03T01:42:32;103332.00;;;3.34;86.34
77662;BME280;67292;52.136;5.424;2023-04-03T01:44:58;103334.50;;;3.30;86.46
77662;BME280;67292;52.136;5.424;2023-04-03T01:47:25;103330.09;;;3.29;87.20
77662;BME280;67292;52.136;5.424;2023-04-03T01:49:52;103329.06;;;3.26;87.38
77662;BME280;67292;52.136;5.424;2023-04-03T01:52:18;103325.53;;;3.24;87.08
77662;BME280;67292;52.136;5.424;2023-04-03T01:54:45;103326.34;;;3.23;87.54
77662;BME280;67292;52.136;5.424;2023-04-03T01:57:11;103328.88;;;3.20;87.07
77662;BME280;67292;52.136;5.424;2023-04-03T01:59:40;103329.66;;;3.17;87.09
77662;BME280;67292;52.136;5.424;2023-04-03T02:02:06;103329.59;;;3.16;87.58
77662;BME280;67292;52.136;5.424;2023-04-03T02:04:33;103333.03;;;3.13;87.73
77662;BME280;67292;52.136;5.424;2023-04-03T02:07:00;103332.13;;;3.13;87.54
77662;BME280;67292;52.136;5.424;2023-04-03T02:09:26;103338.22;;;3.12;87.10
77662;BME280;67292;52.136;5.424;2023-04-03T02:11:53;103335.47;;;3.09;87.59
77662;BME280;67292;52.136;5.424;2023-04-03T02:14:20;103343.34;;;3.09;87.73
77662;BME280;67292;52.136;5.424;2023-04-03T02:16:48;103350.28;;;3.07;88.01
77662;BME280;67292;52.136;5.424;2023-04-03T02:19:14;103340.50;;;3.03;88.17
77662;BME280;67292;52.136;5.424;2023-04-03T02:21:41;103345.81;;;3.04;87.63
77662;BME280;67292;52.136;5.424;2023-04-03T02:24:08;103349.19;;;3.00;87.82
77662;BME280;67292;52.136;5.424;2023-04-03T02:26:34;103343.78;;;2.97;87.89
77662;BME280;67292;52.136;5.424;2023-04-03T02:29:01;103341.16;;;2.97;88.25
77662;BME280;67292;52.136;5.424;2023-04-03T02:31:27;103346.38;;;2.96;87.94
77662;BME280;67292;52.136;5.424;2023-04-03T02:33:54;103341.03;;;2.94;87.75
77662;BME280;67292;52.136;5.424;2023-04-03T02:36:21;103337.44;;;2.90;88.23
77662;BME280;67292;52.136;5.424;2023-04-03T02:38:47;103338.25;;;2.89;87.97
77662;BME280;67292;52.136;5.424;2023-04-03T02:41:14;103348.72;;;2.88;88.62
77662;BME280;67292;52.136;5.424;2023-04-03T02:43:41;103349.47;;;2.85;88.02
77662;BME280;67292;52.136;5.424;2023-04-03T02:46:08;103348.53;;;2.83;88.51
77662;BME280;67292;52.136;5.424;2023-04-03T02:48:36;103356.34;;;2.82;88.73
77662;BME280;67292;52.136;5.424;2023-04-03T02:51:03;103352.78;;;2.80;88.87
77662;BME280;67292;52.136;5.424;2023-04-03T02:53:29;103364.97;;;2.78;89.00
77662;BME280;67292;52.136;5.424;2023-04-03T02:55:56;103362.28;;;2.76;89.42
77662;BME280;67292;52.136;5.424;2023-04-03T02:58:23;103371.00;;;2.75;89.88
77662;BME280;67292;52.136;5.424;2023-04-03T03:00:49;103367.34;;;2.72;90.14
77662;BME280;67292;52.136;5.424;2023-04-03T03:03:16;103376.94;;;2.70;90.32
77662;BME280;67292;52.136;5.424;2023-04-03T03:05:42;103370.66;;;2.66;90.10
77662;BME280;67292;52.136;5.424;2023-04-03T03:08:09;103380.25;;;2.66;90.05
77662;BME280;67292;52.136;5.424;2023-04-03T03:10:36;103381.91;;;2.64;90.69
77662;BME280;67292;52.136;5.424;2023-04-03T03:13:03;103381.78;;;2.61;91.09
77662;BME280;67292;52.136;5.424;2023-04-03T03:15:29;103379.13;;;2.59;91.34
77662;BME280;67292;52.136;5.424;2023-04-03T03:17:56;103385.91;;;2.54;90.76
77662;BME280;67292;52.136;5.424;2023-04-03T03:20:22;103385.84;;;2.52;90.74
77662;BME280;67292;52.136;5.424;2023-04-03T03:22:49;103389.25;;;2.50;90.22
77662;BME280;67292;52.136;5.424;2023-04-03T03:25:16;103397.09;;;2.48;90.53
77662;BME280;67292;52.136;5.424;2023-04-03T03:27:42;103384.78;;;2.47;90.99
77662;BME280;67292;52.136;5.424;2023-04-03T03:30:09;103385.50;;;2.43;90.45
77662;BME280;67292;52.136;5.424;2023-04-03T03:32:36;103389.91;;;2.44;90.76
77662;BME280;67292;52.136;5.424;2023-04-03T03:35:03;103387.22;;;2.43;90.27
77662;BME280;67292;52.136;5.424;2023-04-03T03:37:30;103388.06;;;2.42;89.70
77662;BME280;67292;52.136;5.424;2023-04-03T03:39:56;103389.72;;;2.40;90.46
77662;BME280;67292;52.136;5.424;2023-04-03T03:42:23;103383.47;;;2.36;91.60
77662;BME280;67292;52.136;5.424;2023-04-03T03:44:49;103390.44;;;2.36;90.91
77662;BME280;67292;52.136;5.424;2023-04-03T03:47:16;103391.22;;;2.33;90.81
77662;BME280;67292;52.136;5.424;2023-04-03T03:49:42;103391.13;;;2.32;90.99
77662;BME280;67292;52.136;5.424;2023-04-03T03:52:09;103392.81;;;2.30;90.73
77662;BME280;67292;52.136;5.424;2023-04-03T03:54:39;103391.91;;;2.29;91.08
77662;BME280;67292;52.136;5.424;2023-04-03T03:57:05;103388.34;;;2.27;90.80
77662;BME280;67292;52.136;5.424;2023-04-03T03:59:32;103397.06;;;2.26;91.18
77662;BME280;67292;52.136;5.424;2023-04-03T04:01:59;103397.88;;;2.25;91.23
77662;BME280;67292;52.136;5.424;2023-04-03T04:04:26;103398.72;;;2.24;92.03
77662;BME280;67292;52.136;5.424;2023-04-03T04:06:52;103401.28;;;2.23;91.63
77662;BME280;67292;52.136;5.424;2023-04-03T04:09:19;103388.91;;;2.20;92.11
77662;BME280;67292;52.136;5.424;2023-04-03T04:11:45;103395.81;;;2.18;91.49
77662;BME280;67292;52.136;5.424;2023-04-03T04:14:12;103392.34;;;2.19;90.72
77662;BME280;67292;52.136;5.424;2023-04-03T04:16:39;103408.13;;;2.19;90.86
77662;BME280;67292;52.136;5.424;2023-04-03T04:19:06;103407.16;;;2.17;91.67
77662;BME280;67292;52.136;5.424;2023-04-03T04:21:35;103408.00;;;2.16;91.99
77662;BME280;67292;52.136;5.424;2023-04-03T04:24:01;103417.63;;;2.15;91.31
77662;BME280;67292;52.136;5.424;2023-04-03T04:26:28;103409.59;;;2.12;91.38
77662;BME280;67292;52.136;5.424;2023-04-03T04:28:54;103409.59;;;2.12;91.39
77662;BME280;67292;52.136;5.424;2023-04-03T04:31:21;103407.81;;;2.11;91.88
77662;BME280;67292;52.136;5.424;2023-04-03T04:33:49;103415.69;;;2.11;91.51
77662;BME280;67292;52.136;5.424;2023-04-03T04:36:16;103406.00;;;2.10;91.96
77662;BME280;67292;52.136;5.424;2023-04-03T04:38:43;103412.09;;;2.09;91.77
77662;BME280;67292;52.136;5.424;2023-04-03T04:41:10;103413.75;;;2.07;91.18
77662;BME280;67292;52.136;5.424;2023-04-03T04:43:36;103415.47;;;2.07;92.42
77662;BME280;67292;52.136;5.424;2023-04-03T04:46:06;103417.19;;;2.06;91.45
77662;BME280;67292;52.136;5.424;2023-04-03T04:48:34;103421.50;;;2.04;91.67
77662;BME280;67292;52.136;5.424;2023-04-03T04:51:02;103422.28;;;2.02;92.10
77662;BME280;67292;52.136;5.424;2023-04-03T04:53:29;103423.09;;;2.01;92.16
77662;BME280;67292;52.136;5.424;2023-04-03T04:55:56;103421.31;;;2.00;92.40
77662;BME280;67292;52.136;5.424;2023-04-03T04:58:22;103427.38;;;1.99;91.56
77662;BME280;67292;52.136;5.424;2023-04-03T05:00:49;103418.53;;;1.97;92.00
77662;BME280;67292;52.136;5.424;2023-04-03T05:03:16;103422.06;;;1.97;92.02
77662;BME280;67292;52.136;5.424;2023-04-03T05:05:42;103429.81;;;1.94;92.57
77662;BME280;67292;52.136;5.424;2023-04-03T05:08:09;103423.63;;;1.92;91.88
77662;BME280;67292;52.136;5.424;2023-04-03T05:10:36;103427.13;;;1.93;92.12
77662;BME280;67292;52.136;5.424;2023-04-03T05:13:02;103431.47;;;1.92;92.40
77662;BME280;67292;52.136;5.424;2023-04-03T05:15:29;103433.22;;;1.92;92.24
77662;BME280;67292;52.136;5.424;2023-04-03T05:17:56;103437.63;;;1.93;91.69
77662;BME280;67292;52.136;5.424;2023-04-03T05:20:23;103425.25;;;1.90;92.18
77662;BME280;67292;52.136;5.424;2023-04-03T05:22:49;103441.09;;;1.92;92.04
77662;BME280;67292;52.136;5.424;2023-04-03T05:25:16;103432.25;;;1.90;91.88
77662;BME280;67292;52.136;5.424;2023-04-03T05:27:42;103441.00;;;1.90;92.43
77662;BME280;67292;52.136;5.424;2023-04-03T05:30:09;103445.28;;;1.88;92.25
77662;BME280;67292;52.136;5.424;2023-04-03T05:32:36;103451.44;;;1.89;92.16
77662;BME280;67292;52.136;5.424;2023-04-03T05:35:04;103453.16;;;1.88;91.44
77662;BME280;67292;52.136;5.424;2023-04-03T05:37:32;103445.22;;;1.87;91.68
77662;BME280;67292;52.136;5.424;2023-04-03T05:39:59;103445.16;;;1.85;91.48
77662;BME280;67292;52.136;5.424;2023-04-03T05:42:26;103439.97;;;1.87;91.67
77662;BME280;67292;52.136;5.424;2023-04-03T05:44:52;103454.81;;;1.86;92.05
77662;BME280;67292;52.136;5.424;2023-04-03T05:47:19;103453.94;;;1.86;91.71
77662;BME280;67292;52.136;5.424;2023-04-03T05:49:46;103458.28;;;1.85;91.78
77662;BME280;67292;52.136;5.424;2023-04-03T05:52:33;103460.00;;;1.84;91.82
77662;BME280;67292;52.136;5.424;2023-04-03T05:55:02;103461.78;;;1.86;91.82
77662;BME280;67292;52.136;5.424;2023-04-03T05:57:29;103463.59;;;1.87;92.00
77662;BME280;67292;52.136;5.424;2023-04-03T05:59:55;103468.91;;;1.88;92.16
77662;BME280;67292;52.136;5.424;2023-04-03T06:02:24;103464.56;;;1.89;91.97
77662;BME280;67292;52.136;5.424;2023-04-03T06:04:51;103469.81;;;1.89;91.59
77662;BME280;67292;52.136;5.424;2023-04-03T06:07:22;103482.19;;;1.91;92.14
77662;BME280;67292;52.136;5.424;2023-04-03T06:09:52;103476.03;;;1.91;91.82
77662;BME280;67292;52.136;5.424;2023-04-03T06:12:19;103474.38;;;1.93;92.06
77662;BME280;67292;52.136;5.424;2023-04-03T06:14:46;103470.97;;;1.95;91.54
77662;BME280;67292;52.136;5.424;2023-04-03T06:17:13;103476.28;;;1.97;91.85
77662;BME280;67292;52.136;5.424;2023-04-03T06:19:40;103479.06;;;2.00;92.01
77662;BME280;67292;52.136;5.424;2023-04-03T06:22:07;103475.69;;;2.02;91.36
77662;BME280;67292;52.136;5.424;2023-04-03T06:24:34;103480.16;;;2.05;91.65
77662;BME280;67292;52.136;5.424;2023-04-03T06:27:01;103486.38;;;2.07;91.99
77662;BME280;67292;52.136;5.424;2023-04-03T06:29:28;103491.75;;;2.10;91.62
77662;BME280;67292;52.136;5.424;2023-04-03T06:31:55;103492.72;;;2.12;91.27
77662;BME280;67292;52.136;5.424;2023-04-03T06:34:22;103491.06;;;2.14;91.26
77662;BME280;67292;52.136;5.424;2023-04-03T06:36:48;103483.28;;;2.17;90.84
77662;BME280;67292;52.136;5.424;2023-04-03T06:39:19;103481.66;;;2.19;91.22
77662;BME280;67292;52.136;5.424;2023-04-03T06:41:47;103489.66;;;2.22;91.34
77662;BME280;67292;52.136;5.424;2023-04-03T06:44:14;103498.66;;;2.27;91.21
77662;BME280;67292;52.136;5.424;2023-04-03T06:46:43;103497.03;;;2.31;91.37
77662;BME280;67292;52.136;5.424;2023-04-03T06:49:10;103501.47;;;2.32;90.68
77662;BME280;67292;52.136;5.424;2023-04-03T06:51:37;103504.28;;;2.36;91.30
77662;BME280;67292;52.136;5.424;2023-04-03T06:54:05;103500.94;;;2.40;90.78
77662;BME280;67292;52.136;5.424;2023-04-03T06:56:32;103504.69;;;2.45;90.86
77662;BME280;67292;52.136;5.424;2023-04-03T06:58:59;103505.06;;;2.54;90.72
77662;BME280;67292;52.136;5.424;2023-04-03T07:01:28;103512.72;;;2.71;90.89
77662;BME280;67292;52.136;5.424;2023-04-03T07:03:55;103512.00;;;2.96;90.85
77662;BME280;67292;52.136;5.424;2023-04-03T07:06:22;103515.97;;;3.29;90.15
77662;BME280;67292;52.136;5.424;2023-04-03T07:08:49;103515.94;;;3.74;89.88
77662;BME280;67292;52.136;5.424;2023-04-03T07:11:17;103522.91;;;4.19;87.86
77662;BME280;67292;52.136;5.424;2023-04-03T07:13:43;103517.44;;;4.64;87.92
77662;BME280;67292;52.136;5.424;2023-04-03T07:16:10;103513.50;;;5.05;86.60
77662;BME280;67292;52.136;5.424;2023-04-03T07:18:37;103508.66;;;5.47;87.34
77662;BME280;67292;52.136;5.424;2023-04-03T07:21:04;103515.63;;;5.75;84.99
77662;BME280;67292;52.136;5.424;2023-04-03T07:23:31;103506.84;;;6.06;83.97
77662;BME280;67292;52.136;5.424;2023-04-03T07:25:57;103516.25;;;6.28;82.73
77662;BME280;67292;52.136;5.424;2023-04-03T07:28:26;103514.50;;;6.59;80.54
77662;BME280;67292;52.136;5.424;2023-04-03T07:31:03;103512.66;;;6.91;82.41
77662;BME280;67292;52.136;5.424;2023-04-03T07:33:31;103516.94;;;7.24;81.96
77662;BME280;67292;52.136;5.424;2023-04-03T07:35:59;103517.66;;;7.56;82.29
77662;BME280;67292;52.136;5.424;2023-04-03T07:38:27;103521.00;;;7.88;80.44
77662;BME280;67292;52.136;5.424;2023-04-03T07:40:53;103521.66;;;8.23;81.50
77662;BME280;67292;52.136;5.424;2023-04-03T07:43:21;103522.00;;;8.38;77.60
77662;BME280;67292;52.136;5.424;2023-04-03T07:45:48;103523.53;;;8.73;80.21
77662;BME280;67292;52.136;5.424;2023-04-03T07:48:22;103526.63;;;9.02;79.29
77662;BME280;67292;52.136;5.424;2023-04-03T07:50:49;103512.75;;;9.22;76.79
77662;BME280;67292;52.136;5.424;2023-04-03T07:53:16;103517.47;;;9.39;74.88
77662;BME280;67292;52.136;5.424;2023-04-03T07:55:43;103527.41;;;9.54;73.45
77662;BME280;67292;52.136;5.424;2023-04-03T07:58:15;103521.47;;;9.72;76.98
77662;BME280;67292;52.136;5.424;2023-04-03T08:00:42;103515.41;;;9.83;72.84
77662;BME280;67292;52.136;5.424;2023-04-03T08:03:10;103516.66;;;10.17;72.30
77662;BME280;67292;52.136;5.424;2023-04-03T08:05:43;103503.50;;;10.27;73.65
77662;BME280;67292;52.136;5.424;2023-04-03T08:08:19;103517.06;;;10.54;74.47
77662;BME280;67292;52.136;5.424;2023-04-03T08:10:51;103515.47;;;10.74;72.95
77662;BME280;67292;52.136;5.424;2023-04-03T08:13:18;103511.22;;;10.96;72.70
77662;BME280;67292;52.136;5.424;2023-04-03T08:15:46;103508.72;;;11.19;68.40
77662;BME280;67292;52.136;5.424;2023-04-03T08:18:14;103522.13;;;11.31;72.47
77662;BME280;67292;52.136;5.424;2023-04-03T08:20:41;103520.47;;;11.53;73.82
77662;BME280;67292;52.136;5.424;2023-04-03T08:23:08;103519.66;;;11.69;69.96
77662;BME280;67292;52.136;5.424;2023-04-03T08:25:39;103525.13;;;11.87;69.99
77662;BME280;67292;52.136;5.424;2023-04-03T08:28:07;103525.16;;;12.04;69.00
77662;BME280;67292;52.136;5.424;2023-04-03T08:30:34;103533.19;;;12.12;69.03
77662;BME280;67292;52.136;5.424;2023-04-03T08:33:02;103527.88;;;12.24;69.08
77662;BME280;67292;52.136;5.424;2023-04-03T08:35:30;103530.56;;;12.27;70.03
77662;BME280;67292;52.136;5.424;2023-04-03T08:37:57;103529.72;;;12.43;68.32
77662;BME280;67292;52.136;5.424;2023-04-03T08:40:24;103535.97;;;12.53;66.29
77662;BME280;67292;52.136;5.424;2023-04-03T08:46:11;103538.66;;;12.68;61.03
77662;BME280;67292;52.136;5.424;2023-04-03T08:48:41;103538.66;;;12.69;66.07
77662;BME280;67292;52.136;5.424;2023-04-03T08:51:19;103538.66;;;12.72;63.92
77662;BME280;67292;52.136;5.424;2023-04-03T08:53:57;103528.88;;;12.82;62.75
77662;BME280;67292;52.136;5.424;2023-04-03T08:56:26;103534.19;;;13.03;61.93
77662;BME280;67292;52.136;5.424;2023-04-03T08:59:04;103530.63;;;13.12;58.05
77662;BME280;67292;52.136;5.424;2023-04-03T09:01:37;103537.78;;;13.25;53.11
77662;BME280;67292;52.136;5.424;2023-04-03T09:04:12;103534.19;;;13.35;60.88
77662;BME280;67292;52.136;5.424;2023-04-03T09:06:45;103522.59;;;13.36;54.27
77662;BME280;67292;52.136;5.424;2023-04-03T09:09:35;103524.34;;;13.46;57.32
77662;BME280;67292;52.136;5.424;2023-04-03T09:12:24;103517.09;;;13.76;58.06
77662;BME280;67292;52.136;5.424;2023-04-03T09:17:53;103522.59;;;13.33;47.88
77662;BME280;67292;52.136;5.424;2023-04-03T09:25:43;103528.78;;;13.53;52.88
77662;BME280;67292;52.136;5.424;2023-04-03T09:28:11;103527.03;;;13.51;47.29
77662;BME280;67292;52.136;5.424;2023-04-03T09:30:38;103529.72;;;13.34;50.63
77662;BME280;67292;52.136;5.424;2023-04-03T09:33:05;103526.13;;;13.50;44.98
77662;BME280;67292;52.136;5.424;2023-04-03T09:35:36;103519.91;;;13.51;48.58
77662;BME280;67292;52.136;5.424;2023-04-03T09:40:43;103510.00;;;13.66;49.32
77662;BME280;67292;52.136;5.424;2023-04-03T09:45:44;103511.78;;;13.71;46.67
77662;BME280;67292;52.136;5.424;2023-04-03T09:56:00;103497.38;;;14.03;50.48
77662;BME280;67292;52.136;5.424;2023-04-03T09:58:40;103489.19;;;14.24;46.95
77662;BME280;67292;52.136;5.424;2023-04-03T10:04:18;103481.16;;;14.22;44.71
77662;BME280;67292;52.136;5.424;2023-04-03T10:06:48;103482.94;;;14.27;45.67
77662;BME280;67292;52.136;5.424;2023-04-03T10:12:09;103471.34;;;14.23;42.12
77662;BME280;67292;52.136;5.424;2023-04-03T10:14:58;103474.03;;;14.18;39.37
77662;BME280;67292;52.136;5.424;2023-04-03T10:17:43;103476.69;;;14.24;48.03
77662;BME280;67292;52.136;5.424;2023-04-03T10:20:27;103474.84;;;14.34;48.85
77662;BME280;67292;52.136;5.424;2023-04-03T10:31:17;103457.94;;;14.24;42.65
77662;BME280;67292;52.136;5.424;2023-04-03T10:34:23;103455.16;;;14.46;41.04
77662;BME280;67292;52.136;5.424;2023-04-03T10:45:30;103427.63;;;14.19;40.15
77662;BME280;67292;52.136;5.424;2023-04-03T10:51:11;103432.97;;;14.18;43.34
77662;BME280;67292;52.136;5.424;2023-04-03T10:53:56;103424.13;;;14.11;42.65
77662;BME280;67292;52.136;5.424;2023-04-03T10:56:35;103431.16;;;14.24;47.28
77662;BME280;67292;52.136;5.424;2023-04-03T11:02:01;103423.22;;;14.12;39.73
77662;BME280;67292;52.136;5.424;2023-04-03T11:04:36;103418.78;;;14.07;44.24
77662;BME280;67292;52.136;5.424;2023-04-03T11:07:26;103413.47;;;14.02;44.20
77662;BME280;67292;52.136;5.424;2023-04-03T11:10:03;103415.34;;;13.91;43.39
77662;BME280;67292;52.136;5.424;2023-04-03T11:12:42;103419.94;;;13.68;42.61
77662;BME280;67292;52.136;5.424;2023-04-03T11:15:17;103411.88;;;13.72;45.65
77662;BME280;67292;52.136;5.424;2023-04-03T11:17:51;103403.91;;;13.60;46.48
77662;BME280;67292;52.136;5.424;2023-04-03T11:20:26;103419.09;;;13.55;40.45
77662;BME280;67292;52.136;5.424;2023-04-03T11:23:25;103407.56;;;13.44;43.10
77662;BME280;67292;52.136;5.424;2023-04-03T11:26:10;103406.66;;;13.49;46.89
77662;BME280;67292;52.136;5.424;2023-04-03T11:28:39;103413.84;;;13.38;45.82
77662;BME280;67292;52.136;5.424;2023-04-03T11:31:18;103405.84;;;13.29;42.88
77662;BME280;67292;52.136;5.424;2023-04-03T11:36:44;103422.81;;;13.14;44.91
77662;BME280;67292;52.136;5.424;2023-04-03T11:39:34;103420.19;;;12.95;46.11
77662;BME280;67292;52.136;5.424;2023-04-03T11:44:42;103414.00;;;12.61;44.96
77662;BME280;67292;52.136;5.424;2023-04-03T11:47:10;103406.88;;;12.46;38.32
77662;BME280;67292;52.136;5.424;2023-04-03T11:50:01;103407.78;;;12.40;41.85
77662;BME280;67292;52.136;5.424;2023-04-03T12:16:42;103385.50;;;11.94;43.73
77662;BME280;67292;52.136;5.424;2023-04-03T12:34:45;103358.66;;;11.35;42.77
77662;BME280;67292;52.136;5.424;2023-04-03T12:40:06;103349.72;;;11.24;41.96
77662;BME280;67292;52.136;5.424;2023-04-03T12:45:26;103347.94;;;11.20;43.68
77662;BME280;67292;52.136;5.424;2023-04-03T12:47:55;103347.91;;;11.18;44.22
77662;BME280;67292;52.136;5.424;2023-04-03T12:50:28;103332.81;;;11.11;44.75
77662;BME280;67292;52.136;5.424;2023-04-03T12:53:02;103334.56;;;11.09;45.14
77662;BME280;67292;52.136;5.424;2023-04-03T12:55:30;103326.53;;;11.05;44.47
77662;BME280;67292;52.136;5.424;2023-04-03T12:57:57;103332.75;;;11.01;44.35
77662;BME280;67292;52.136;5.424;2023-04-03T13:00:31;103322.97;;;10.98;43.50
77662;BME280;67292;52.136;5.424;2023-04-03T13:03:02;103322.03;;;10.87;42.01
77662;BME280;67292;52.136;5.424;2023-04-03T13:05:31;103316.69;;;10.85;42.51
77662;BME280;67292;52.136;5.424;2023-04-03T13:08:10;103321.16;;;10.89;43.13
77662;BME280;67292;52.136;5.424;2023-04-03T13:10:54;103318.47;;;10.85;41.61
77662;BME280;67292;52.136;5.424;2023-04-03T13:13:22;103313.09;;;10.77;42.34
77662;BME280;67292;52.136;5.424;2023-04-03T13:15:50;103322.00;;;10.81;43.01
77662;BME280;67292;52.136;5.424;2023-04-03T13:18:37;103308.69;;;10.81;44.85
77662;BME280;67292;52.136;5.424;2023-04-03T13:21:13;103308.66;;;10.78;44.60
77662;BME280;67292;52.136;5.424;2023-04-03T13:23:45;103300.69;;;10.79;43.51
77662;BME280;67292;52.136;5.424;2023-04-03T13:26:21;103306.06;;;10.88;44.65
77662;BME280;67292;52.136;5.424;2023-04-03T13:28:49;103310.47;;;10.79;43.50
77662;BME280;67292;52.136;5.424;2023-04-03T13:31:29;103306.94;;;10.81;41.42
77662;BME280;67292;52.136;5.424;2023-04-03T13:34:03;103306.88;;;10.77;47.74
77662;BME280;67292;52.136;5.424;2023-04-03T13:36:43;103298.88;;;10.72;41.97
77662;BME280;67292;52.136;5.424;2023-04-03T13:41:46;103306.00;;;10.76;44.79
77662;BME280;67292;52.136;5.424;2023-04-03T13:46:54;103312.22;;;10.77;46.48
77662;BME280;67292;52.136;5.424;2023-04-03T13:51:58;103306.91;;;10.78;42.97
77662;BME280;67292;52.136;5.424;2023-04-03T13:54:39;103307.81;;;10.80;44.65
77662;BME280;67292;52.136;5.424;2023-04-03T13:57:15;103298.88;;;10.74;44.28
77662;BME280;67292;52.136;5.424;2023-04-03T13:59:42;103299.75;;;10.74;42.31
77662;BME280;67292;52.136;5.424;2023-04-03T14:02:17;103309.50;;;10.72;44.05
77662;BME280;67292;52.136;5.424;2023-04-03T14:07:11;103279.34;;;10.69;44.69
77662;BME280;67292;52.136;5.424;2023-04-03T14:09:38;103289.09;;;10.73;45.73
77662;BME280;67292;52.136;5.424;2023-04-03T14:12:11;103286.44;;;10.73;46.45
77662;BME280;67292;52.136;5.424;2023-04-03T14:14:55;103289.13;;;10.76;46.35
77662;BME280;67292;52.136;5.424;2023-04-03T14:17:25;103274.91;;;10.75;45.90
77662;BME280;67292;52.136;5.424;2023-04-03T14:19:54;103275.78;;;10.68;45.50
77662;BME280;67292;52.136;5.424;2023-04-03T14:24:52;103267.81;;;10.74;47.63
77662;BME280;67292;52.136;5.424;2023-04-03T14:27:25;103265.13;;;10.71;45.81
77662;BME280;67292;52.136;5.424;2023-04-03T14:29:54;103260.69;;;10.66;44.71
77662;BME280;67292;52.136;5.424;2023-04-03T14:32:22;103256.25;;;10.72;48.48
77662;BME280;67292;52.136;5.424;2023-04-03T14:34:51;103253.63;;;10.71;44.25
77662;BME280;67292;52.136;5.424;2023-04-03T14:37:22;103250.94;;;10.68;45.24
77662;BME280;67292;52.136;5.424;2023-04-03T14:39:51;103250.06;;;10.70;43.15
77662;BME280;67292;52.136;5.424;2023-04-03T14:42:23;103246.50;;;10.70;46.98
77662;BME280;67292;52.136;5.424;2023-04-03T14:44:51;103245.63;;;10.75;46.17
77662;BME280;67292;52.136;5.424;2023-04-03T14:47:25;103250.97;;;10.78;49.27
77662;BME280;67292;52.136;5.424;2023-04-03T14:50:02;103250.06;;;10.70;46.48
77662;BME280;67292;52.136;5.424;2023-04-03T14:52:34;103244.69;;;10.66;46.88
77662;BME280;67292;52.136;5.424;2023-04-03T14:55:03;103244.66;;;10.61;47.33
77662;BME280;67292;52.136;5.424;2023-04-03T14:57:31;103239.34;;;10.61;45.61
77662;BME280;67292;52.136;5.424;2023-04-03T14:59:58;103239.38;;;10.67;49.69
77662;BME280;67292;52.136;5.424;2023-04-03T15:02:35;103237.63;;;10.68;47.73
77662;BME280;67292;52.136;5.424;2023-04-03T15:05:06;103242.91;;;10.65;48.17
77662;BME280;67292;52.136;5.424;2023-04-03T15:07:39;103238.47;;;10.62;47.13
77662;BME280;67292;52.136;5.424;2023-04-03T15:12:43;103245.56;;;10.57;47.00
77662;BME280;67292;52.136;5.424;2023-04-03T15:15:12;103239.31;;;10.53;45.38